sensor_id;sensor_type;location;lat;lon;timestamp;P1;durP1;ratioP1;P2;durP2;ratioP2
15490;SDS011;7847;50.930;4.336;2023-04-25T00:01:39;0.30;;;0.30;;
15490;SDS011;7847;50.930;4.336;2023-04-25T00:04:05;0.30;;;0.30;;
15490;SDS011;7847;50.930;4.336;2023-04-25T00:06:32;0.30;;;0.30;;
15490;SDS011;7847;50.930;4.336;2023-04-25T00:09:01;0.40;;;0.40;;
15490;SDS011;7847;50.930;4.336;2023-04-25T00:11:27;0.30;;;0.30;;
15490;SDS011;7847;50.930;4.336;2023-04-25T00:13:55;0.40;;;0.40;;
15490;SDS011;7847;50.930;4.336;2023-04-25T00:16:22;0.30;;;0.30;;
15490;SDS011;7847;50.930;4.336;2023-04-25T00:18:48;0.40;;;0.40;;
15490;SDS011;7847;50.930;4.336;2023-04-25T00:21:18;0.40;;;0.40;;
15490;SDS011;7847;50.930;4.336;2023-04-25T00:23:45;0.33;;;0.33;;
15490;SDS011;7847;50.930;4.336;2023-04-25T00:26:11;0.40;;;0.40;;
15490;SDS011;7847;50.930;4.336;2023-04-25T00:28:37;0.30;;;0.30;;
15490;SDS011;7847;50.930;4.336;2023-04-25T00:31:03;0.30;;;0.30;;
15490;SDS011;7847;50.930;4.336;2023-04-25T00:33:29;0.40;;;0.40;;
15490;SDS011;7847;50.930;4.336;2023-04-25T00:35:55;0.30;;;0.30;;
15490;SDS011;7847;50.930;4.336;2023-04-25T00:38:22;0.30;;;0.30;;
15490;SDS011;7847;50.930;4.336;2023-04-25T00:40:48;0.37;;;0.37;;
15490;SDS011;7847;50.930;4.336;2023-04-25T00:43:14;0.40;;;0.40;;
15490;SDS011;7847;50.930;4.336;2023-04-25T00:45:40;0.30;;;0.30;;
15490;SDS011;7847;50.930;4.336;2023-04-25T00:48:06;0.30;;;0.30;;
15490;SDS011;7847;50.930;4.336;2023-04-25T00:50:35;0.40;;;0.40;;
15490;SDS011;7847;50.930;4.336;2023-04-25T00:53:02;0.40;;;0.40;;
15490;SDS011;7847;50.930;4.336;2023-04-25T00:55:28;0.30;;;0.30;;
15490;SDS011;7847;50.930;4.336;2023-04-25T00:57:56;0.30;;;0.30;;
15490;SDS011;7847;50.930;4.336;2023-04-25T01:00:22;0.30;;;0.30;;
15490;SDS011;7847;50.930;4.336;2023-04-25T01:02:48;0.33;;;0.33;;
15490;SDS011;7847;50.930;4.336;2023-04-25T01:05:15;0.40;;;0.40;;
15490;SDS011;7847;50.930;4.336;2023-04-25T01:07:42;0.30;;;0.30;;
15490;SDS011;7847;50.930;4.336;2023-04-25T01:10:09;0.30;;;0.30;;
15490;SDS011;7847;50.930;4.336;2023-04-25T01:12:35;0.40;;;0.40;;
15490;SDS011;7847;50.930;4.336;2023-04-25T01:15:01;0.40;;;0.40;;
15490;SDS011;7847;50.930;4.336;2023-04-25T01:17:27;0.40;;;0.40;;
15490;SDS011;7847;50.930;4.336;2023-04-25T01:19:54;0.30;;;0.30;;
15490;SDS011;7847;50.930;4.336;2023-04-25T01:22:20;0.30;;;0.30;;
15490;SDS011;7847;50.930;4.336;2023-04-25T01:24:46;0.40;;;0.40;;
15490;SDS011;7847;50.930;4.336;2023-04-25T01:27:12;0.37;;;0.37;;
15490;SDS011;7847;50.930;4.336;2023-04-25T01:29:39;0.40;;;0.40;;
15490;SDS011;7847;50.930;4.336;2023-04-25T01:32:05;0.30;;;0.30;;
15490;SDS011;7847;50.930;4.336;2023-04-25T01:34:32;0.30;;;0.30;;
15490;SDS011;7847;50.930;4.336;2023-04-25T01:36:59;0.33;;;0.33;;
15490;SDS011;7847;50.930;4.336;2023-04-25T01:39:26;0.30;;;0.30;;
15490;SDS011;7847;50.930;4.336;2023-04-25T01:41:52;0.40;;;0.40;;
15490;SDS011;7847;50.930;4.336;2023-04-25T01:44:18;0.40;;;0.40;;
15490;SDS011;7847;50.930;4.336;2023-04-25T01:46:44;0.30;;;0.30;;
15490;SDS011;7847;50.930;4.336;2023-04-25T01:49:10;0.30;;;0.30;;
15490;SDS011;7847;50.930;4.336;2023-04-25T01:51:37;0.30;;;0.30;;
15490;SDS011;7847;50.930;4.336;2023-04-25T01:54:03;0.40;;;0.40;;
15490;SDS011;7847;50.930;4.336;2023-04-25T01:56:30;0.33;;;0.33;;
15490;SDS011;7847;50.930;4.336;2023-04-25T01:58:56;0.40;;;0.40;;
15490;SDS011;7847;50.930;4.336;2023-04-25T02:01:22;0.40;;;0.40;;
15490;SDS011;7847;50.930;4.336;2023-04-25T02:03:48;0.40;;;0.40;;
15490;SDS011;7847;50.930;4.336;2023-04-25T02:06:14;0.40;;;0.40;;
15490;SDS011;7847;50.930;4.336;2023-04-25T02:08:40;0.40;;;0.40;;
15490;SDS011;7847;50.930;4.336;2023-04-25T02:11:06;0.40;;;0.40;;
15490;SDS011;7847;50.930;4.336;2023-04-25T02:13:32;0.40;;;0.40;;
15490;SDS011;7847;50.930;4.336;2023-04-25T02:15:58;0.40;;;0.40;;
15490;SDS011;7847;50.930;4.336;2023-04-25T02:18:25;0.40;;;0.40;;
15490;SDS011;7847;50.930;4.336;2023-04-25T02:20:51;0.40;;;0.40;;
15490;SDS011;7847;50.930;4.336;2023-04-25T02:23:17;0.33;;;0.33;;
15490;SDS011;7847;50.930;4.336;2023-04-25T02:25:46;0.40;;;0.40;;
15490;SDS011;7847;50.930;4.336;2023-04-25T02:28:12;0.40;;;0.40;;
15490;SDS011;7847;50.930;4.336;2023-04-25T02:30:38;0.40;;;0.40;;
15490;SDS011;7847;50.930;4.336;2023-04-25T02:33:05;0.40;;;0.40;;
15490;SDS011;7847;50.930;4.336;2023-04-25T02:35:31;0.40;;;0.40;;
15490;SDS011;7847;50.930;4.336;2023-04-25T02:37:57;0.40;;;0.40;;
15490;SDS011;7847;50.930;4.336;2023-04-25T02:40:23;0.40;;;0.40;;
15490;SDS011;7847;50.930;4.336;2023-04-25T02:42:49;0.50;;;0.50;;
15490;SDS011;7847;50.930;4.336;2023-04-25T02:45:15;0.40;;;0.40;;
15490;SDS011;7847;50.930;4.336;2023-04-25T02:47:41;0.33;;;0.33;;
15490;SDS011;7847;50.930;4.336;2023-04-25T02:50:07;0.40;;;0.40;;
15490;SDS011;7847;50.930;4.336;2023-04-25T02:52:33;0.40;;;0.40;;
15490;SDS011;7847;50.930;4.336;2023-04-25T02:54:59;0.40;;;0.40;;
15490;SDS011;7847;50.930;4.336;2023-04-25T02:57:25;0.30;;;0.30;;
15490;SDS011;7847;50.930;4.336;2023-04-25T02:59:51;0.40;;;0.40;;
15490;SDS011;7847;50.930;4.336;2023-04-25T03:02:17;0.40;;;0.40;;
15490;SDS011;7847;50.930;4.336;2023-04-25T03:04:44;0.40;;;0.40;;
15490;SDS011;7847;50.930;4.336;2023-04-25T03:07:11;0.30;;;0.30;;
15490;SDS011;7847;50.930;4.336;2023-04-25T03:09:37;0.40;;;0.40;;
15490;SDS011;7847;50.930;4.336;2023-04-25T03:12:03;0.30;;;0.30;;
15490;SDS011;7847;50.930;4.336;2023-04-25T03:14:29;0.40;;;0.40;;
15490;SDS011;7847;50.930;4.336;2023-04-25T03:16:55;0.33;;;0.33;;
15490;SDS011;7847;50.930;4.336;2023-04-25T03:19:21;0.50;;;0.50;;
15490;SDS011;7847;50.930;4.336;2023-04-25T03:21:48;0.40;;;0.40;;
15490;SDS011;7847;50.930;4.336;2023-04-25T03:24:14;0.40;;;0.40;;
15490;SDS011;7847;50.930;4.336;2023-04-25T03:26:40;0.30;;;0.30;;
15490;SDS011;7847;50.930;4.336;2023-04-25T03:29:06;0.40;;;0.40;;
15490;SDS011;7847;50.930;4.336;2023-04-25T03:31:32;0.40;;;0.40;;
15490;SDS011;7847;50.930;4.336;2023-04-25T03:33:58;0.40;;;0.40;;
15490;SDS011;7847;50.930;4.336;2023-04-25T03:36:24;0.40;;;0.40;;
15490;SDS011;7847;50.930;4.336;2023-04-25T03:38:50;0.40;;;0.40;;
15490;SDS011;7847;50.930;4.336;2023-04-25T03:41:16;0.40;;;0.40;;
15490;SDS011;7847;50.930;4.336;2023-04-25T03:43:43;0.37;;;0.37;;
15490;SDS011;7847;50.930;4.336;2023-04-25T03:46:09;0.40;;;0.40;;
15490;SDS011;7847;50.930;4.336;2023-04-25T03:48:35;0.40;;;0.40;;
15490;SDS011;7847;50.930;4.336;2023-04-25T03:51:01;0.40;;;0.40;;
15490;SDS011;7847;50.930;4.336;2023-04-25T03:53:27;0.40;;;0.40;;
15490;SDS011;7847;50.930;4.336;2023-04-25T03:55:53;0.40;;;0.40;;
15490;SDS011;7847;50.930;4.336;2023-04-25T03:58:19;0.40;;;0.40;;
15490;SDS011;7847;50.930;4.336;2023-04-25T04:00:46;0.40;;;0.40;;
15490;SDS011;7847;50.930;4.336;2023-04-25T04:03:12;0.40;;;0.40;;
15490;SDS011;7847;50.930;4.336;2023-04-25T04:05:38;0.40;;;0.40;;
15490;SDS011;7847;50.930;4.336;2023-04-25T04:08:05;0.47;;;0.47;;
15490;SDS011;7847;50.930;4.336;2023-04-25T04:10:31;0.40;;;0.40;;
15490;SDS011;7847;50.930;4.336;2023-04-25T04:12:57;0.40;;;0.40;;
15490;SDS011;7847;50.930;4.336;2023-04-25T04:15:24;0.30;;;0.30;;
15490;SDS011;7847;50.930;4.336;2023-04-25T04:17:50;0.40;;;0.40;;
15490;SDS011;7847;50.930;4.336;2023-04-25T04:20:16;0.40;;;0.40;;
15490;SDS011;7847;50.930;4.336;2023-04-25T04:22:42;0.40;;;0.40;;
15490;SDS011;7847;50.930;4.336;2023-04-25T04:25:08;0.40;;;0.40;;
15490;SDS011;7847;50.930;4.336;2023-04-25T04:27:36;0.40;;;0.40;;
15490;SDS011;7847;50.930;4.336;2023-04-25T04:30:03;0.40;;;0.40;;
15490;SDS011;7847;50.930;4.336;2023-04-25T04:32:29;0.40;;;0.40;;
15490;SDS011;7847;50.930;4.336;2023-04-25T04:34:55;0.40;;;0.40;;
15490;SDS011;7847;50.930;4.336;2023-04-25T04:37:22;0.40;;;0.40;;
15490;SDS011;7847;50.930;4.336;2023-04-25T04:39:49;0.40;;;0.40;;
15490;SDS011;7847;50.930;4.336;2023-04-25T04:42:15;0.40;;;0.40;;
15490;SDS011;7847;50.930;4.336;2023-04-25T04:44:42;0.40;;;0.40;;
15490;SDS011;7847;50.930;4.336;2023-04-25T04:47:09;0.40;;;0.40;;
15490;SDS011;7847;50.930;4.336;2023-04-25T04:49:35;0.40;;;0.40;;
15490;SDS011;7847;50.930;4.336;2023-04-25T04:52:01;0.40;;;0.40;;
15490;SDS011;7847;50.930;4.336;2023-04-25T04:54:27;0.50;;;0.50;;
15490;SDS011;7847;50.930;4.336;2023-04-25T04:56:53;0.50;;;0.50;;
15490;SDS011;7847;50.930;4.336;2023-04-25T04:59:20;0.50;;;0.50;;
15490;SDS011;7847;50.930;4.336;2023-04-25T05:01:46;0.40;;;0.40;;
15490;SDS011;7847;50.930;4.336;2023-04-25T05:04:12;0.40;;;0.40;;
15490;SDS011;7847;50.930;4.336;2023-04-25T05:06:38;0.40;;;0.40;;
15490;SDS011;7847;50.930;4.336;2023-04-25T05:09:05;0.40;;;0.40;;
15490;SDS011;7847;50.930;4.336;2023-04-25T05:11:31;0.40;;;0.40;;
15490;SDS011;7847;50.930;4.336;2023-04-25T05:13:57;0.40;;;0.40;;
15490;SDS011;7847;50.930;4.336;2023-04-25T05:16:23;0.33;;;0.33;;
15490;SDS011;7847;50.930;4.336;2023-04-25T05:18:49;0.40;;;0.40;;
15490;SDS011;7847;50.930;4.336;2023-04-25T05:21:15;0.40;;;0.40;;
15490;SDS011;7847;50.930;4.336;2023-04-25T05:23:41;0.40;;;0.40;;
15490;SDS011;7847;50.930;4.336;2023-04-25T05:26:07;0.40;;;0.40;;
15490;SDS011;7847;50.930;4.336;2023-04-25T05:28:39;0.40;;;0.40;;
15490;SDS011;7847;50.930;4.336;2023-04-25T05:31:06;0.40;;;0.40;;
15490;SDS011;7847;50.930;4.336;2023-04-25T05:33:32;0.40;;;0.40;;
15490;SDS011;7847;50.930;4.336;2023-04-25T05:35:58;0.40;;;0.40;;
15490;SDS011;7847;50.930;4.336;2023-04-25T05:38:25;0.40;;;0.40;;
15490;SDS011;7847;50.930;4.336;2023-04-25T05:40:51;0.40;;;0.40;;
15490;SDS011;7847;50.930;4.336;2023-04-25T05:43:17;0.40;;;0.40;;
15490;SDS011;7847;50.930;4.336;2023-04-25T05:45:43;0.40;;;0.40;;
15490;SDS011;7847;50.930;4.336;2023-04-25T05:48:09;0.40;;;0.40;;
15490;SDS011;7847;50.930;4.336;2023-04-25T05:50:35;0.40;;;0.40;;
15490;SDS011;7847;50.930;4.336;2023-04-25T05:53:02;0.40;;;0.40;;
15490;SDS011;7847;50.930;4.336;2023-04-25T05:55:28;0.50;;;0.50;;
15490;SDS011;7847;50.930;4.336;2023-04-25T05:57:54;0.40;;;0.40;;
15490;SDS011;7847;50.930;4.336;2023-04-25T06:00:20;0.40;;;0.40;;
15490;SDS011;7847;50.930;4.336;2023-04-25T06:02:47;0.40;;;0.40;;
15490;SDS011;7847;50.930;4.336;2023-04-25T06:05:13;0.40;;;0.40;;
15490;SDS011;7847;50.930;4.336;2023-04-25T06:07:39;0.40;;;0.40;;
15490;SDS011;7847;50.930;4.336;2023-04-25T06:10:06;0.40;;;0.40;;
15490;SDS011;7847;50.930;4.336;2023-04-25T06:12:32;0.40;;;0.40;;
15490;SDS011;7847;50.930;4.336;2023-04-25T06:14:59;0.40;;;0.40;;
15490;SDS011;7847;50.930;4.336;2023-04-25T06:17:25;0.40;;;0.40;;
15490;SDS011;7847;50.930;4.336;2023-04-25T06:19:51;0.40;;;0.40;;
15490;SDS011;7847;50.930;4.336;2023-04-25T06:22:17;0.50;;;0.50;;
15490;SDS011;7847;50.930;4.336;2023-04-25T06:24:43;0.40;;;0.40;;
15490;SDS011;7847;50.930;4.336;2023-04-25T06:27:10;0.40;;;0.40;;
15490;SDS011;7847;50.930;4.336;2023-04-25T06:29:36;0.40;;;0.40;;
15490;SDS011;7847;50.930;4.336;2023-04-25T06:32:02;0.40;;;0.40;;
15490;SDS011;7847;50.930;4.336;2023-04-25T06:34:29;0.40;;;0.40;;
15490;SDS011;7847;50.930;4.336;2023-04-25T06:36:55;0.40;;;0.40;;
15490;SDS011;7847;50.930;4.336;2023-04-25T06:39:21;0.40;;;0.40;;
15490;SDS011;7847;50.930;4.336;2023-04-25T06:41:48;0.40;;;0.40;;
15490;SDS011;7847;50.930;4.336;2023-04-25T06:44:14;0.40;;;0.40;;
15490;SDS011;7847;50.930;4.336;2023-04-25T06:46:40;0.40;;;0.40;;
15490;SDS011;7847;50.930;4.336;2023-04-25T06:49:07;0.40;;;0.40;;
15490;SDS011;7847;50.930;4.336;2023-04-25T06:51:33;0.40;;;0.40;;
15490;SDS011;7847;50.930;4.336;2023-04-25T06:53:59;0.40;;;0.40;;
15490;SDS011;7847;50.930;4.336;2023-04-25T06:56:25;0.30;;;0.30;;
15490;SDS011;7847;50.930;4.336;2023-04-25T06:58:52;0.40;;;0.40;;
15490;SDS011;7847;50.930;4.336;2023-04-25T07:01:19;0.40;;;0.40;;
15490;SDS011;7847;50.930;4.336;2023-04-25T07:03:45;0.43;;;0.43;;
15490;SDS011;7847;50.930;4.336;2023-04-25T07:06:11;0.40;;;0.40;;
15490;SDS011;7847;50.930;4.336;2023-04-25T07:08:37;0.40;;;0.40;;
15490;SDS011;7847;50.930;4.336;2023-04-25T07:11:03;0.30;;;0.30;;
15490;SDS011;7847;50.930;4.336;2023-04-25T07:13:29;0.40;;;0.40;;
15490;SDS011;7847;50.930;4.336;2023-04-25T07:15:55;0.40;;;0.40;;
15490;SDS011;7847;50.930;4.336;2023-04-25T07:18:22;0.30;;;0.30;;
15490;SDS011;7847;50.930;4.336;2023-04-25T07:20:48;0.30;;;0.30;;
15490;SDS011;7847;50.930;4.336;2023-04-25T07:23:14;0.37;;;0.37;;
15490;SDS011;7847;50.930;4.336;2023-04-25T07:25:40;0.40;;;0.40;;
15490;SDS011;7847;50.930;4.336;2023-04-25T07:28:06;0.40;;;0.40;;
15490;SDS011;7847;50.930;4.336;2023-04-25T07:30:32;0.40;;;0.40;;
15490;SDS011;7847;50.930;4.336;2023-04-25T07:32:59;0.40;;;0.40;;
15490;SDS011;7847;50.930;4.336;2023-04-25T07:35:25;0.40;;;0.40;;
15490;SDS011;7847;50.930;4.336;2023-04-25T07:37:52;0.40;;;0.40;;
15490;SDS011;7847;50.930;4.336;2023-04-25T07:40:18;0.30;;;0.30;;
15490;SDS011;7847;50.930;4.336;2023-04-25T07:42:44;0.40;;;0.40;;
15490;SDS011;7847;50.930;4.336;2023-04-25T07:45:10;0.33;;;0.33;;
15490;SDS011;7847;50.930;4.336;2023-04-25T07:47:36;0.37;;;0.37;;
15490;SDS011;7847;50.930;4.336;2023-04-25T07:50:03;0.40;;;0.40;;
15490;SDS011;7847;50.930;4.336;2023-04-25T07:52:29;0.30;;;0.30;;
15490;SDS011;7847;50.930;4.336;2023-04-25T07:54:56;0.30;;;0.30;;
15490;SDS011;7847;50.930;4.336;2023-04-25T07:57:23;0.33;;;0.33;;
15490;SDS011;7847;50.930;4.336;2023-04-25T07:59:49;0.30;;;0.30;;
15490;SDS011;7847;50.930;4.336;2023-04-25T08:02:15;0.30;;;0.30;;
15490;SDS011;7847;50.930;4.336;2023-04-25T08:04:41;0.30;;;0.30;;
15490;SDS011;7847;50.930;4.336;2023-04-25T08:07:08;0.37;;;0.37;;
15490;SDS011;7847;50.930;4.336;2023-04-25T08:09:34;0.40;;;0.40;;
15490;SDS011;7847;50.930;4.336;2023-04-25T08:12:02;0.30;;;0.30;;
15490;SDS011;7847;50.930;4.336;2023-04-25T08:14:28;0.30;;;0.30;;
15490;SDS011;7847;50.930;4.336;2023-04-25T08:16:56;0.30;;;0.30;;
15490;SDS011;7847;50.930;4.336;2023-04-25T08:19:22;0.40;;;0.40;;
15490;SDS011;7847;50.930;4.336;2023-04-25T08:21:48;0.37;;;0.37;;
15490;SDS011;7847;50.930;4.336;2023-04-25T08:24:16;0.30;;;0.30;;
15490;SDS011;7847;50.930;4.336;2023-04-25T08:26:42;0.30;;;0.30;;
15490;SDS011;7847;50.930;4.336;2023-04-25T08:29:08;0.30;;;0.30;;
15490;SDS011;7847;50.930;4.336;2023-04-25T08:31:34;0.40;;;0.40;;
15490;SDS011;7847;50.930;4.336;2023-04-25T08:34:01;0.30;;;0.30;;
15490;SDS011;7847;50.930;4.336;2023-04-25T08:36:27;0.40;;;0.40;;
15490;SDS011;7847;50.930;4.336;2023-04-25T08:38:53;0.30;;;0.30;;
15490;SDS011;7847;50.930;4.336;2023-04-25T08:41:19;0.30;;;0.30;;
15490;SDS011;7847;50.930;4.336;2023-04-25T08:43:47;0.30;;;0.30;;
15490;SDS011;7847;50.930;4.336;2023-04-25T08:46:15;0.30;;;0.30;;
15490;SDS011;7847;50.930;4.336;2023-04-25T08:48:42;0.30;;;0.30;;
15490;SDS011;7847;50.930;4.336;2023-04-25T08:51:08;0.30;;;0.30;;
15490;SDS011;7847;50.930;4.336;2023-04-25T08:53:35;0.33;;;0.33;;
15490;SDS011;7847;50.930;4.336;2023-04-25T08:56:02;0.30;;;0.30;;
15490;SDS011;7847;50.930;4.336;2023-04-25T08:58:28;0.30;;;0.30;;
15490;SDS011;7847;50.930;4.336;2023-04-25T09:00:54;0.30;;;0.30;;
15490;SDS011;7847;50.930;4.336;2023-04-25T09:03:20;0.33;;;0.33;;
15490;SDS011;7847;50.930;4.336;2023-04-25T09:05:46;0.30;;;0.30;;
15490;SDS011;7847;50.930;4.336;2023-04-25T09:08:12;0.30;;;0.30;;
15490;SDS011;7847;50.930;4.336;2023-04-25T09:10:40;0.30;;;0.30;;
15490;SDS011;7847;50.930;4.336;2023-04-25T09:13:07;0.40;;;0.40;;
15490;SDS011;7847;50.930;4.336;2023-04-25T09:15:46;0.30;;;0.30;;
15490;SDS011;7847;50.930;4.336;2023-04-25T09:18:13;0.40;;;0.40;;
15490;SDS011;7847;50.930;4.336;2023-04-25T09:20:43;0.30;;;0.30;;
15490;SDS011;7847;50.930;4.336;2023-04-25T09:23:09;0.30;;;0.30;;
15490;SDS011;7847;50.930;4.336;2023-04-25T09:25:36;0.30;;;0.30;;
15490;SDS011;7847;50.930;4.336;2023-04-25T09:28:05;0.30;;;0.30;;
15490;SDS011;7847;50.930;4.336;2023-04-25T09:30:32;0.30;;;0.30;;
15490;SDS011;7847;50.930;4.336;2023-04-25T09:33:09;0.30;;;0.30;;
15490;SDS011;7847;50.930;4.336;2023-04-25T09:35:36;0.30;;;0.30;;
15490;SDS011;7847;50.930;4.336;2023-04-25T09:38:12;0.30;;;0.30;;
15490;SDS011;7847;50.930;4.336;2023-04-25T09:40:43;0.30;;;0.30;;
15490;SDS011;7847;50.930;4.336;2023-04-25T09:43:22;0.30;;;0.30;;
15490;SDS011;7847;50.930;4.336;2023-04-25T09:45:49;0.30;;;0.30;;
15490;SDS011;7847;50.930;4.336;2023-04-25T09:48:17;0.30;;;0.30;;
15490;SDS011;7847;50.930;4.336;2023-04-25T09:50:44;0.30;;;0.30;;
15490;SDS011;7847;50.930;4.336;2023-04-25T09:53:10;0.30;;;0.30;;
15490;SDS011;7847;50.930;4.336;2023-04-25T09:55:36;0.40;;;0.40;;
15490;SDS011;7847;50.930;4.336;2023-04-25T09:58:04;0.30;;;0.30;;
15490;SDS011;7847;50.930;4.336;2023-04-25T10:00:32;0.30;;;0.30;;
15490;SDS011;7847;50.930;4.336;2023-04-25T10:02:59;0.30;;;0.30;;
15490;SDS011;7847;50.930;4.336;2023-04-25T10:05:28;0.30;;;0.30;;
15490;SDS011;7847;50.930;4.336;2023-04-25T10:07:57;0.30;;;0.30;;
15490;SDS011;7847;50.930;4.336;2023-04-25T10:10:23;0.30;;;0.30;;
15490;SDS011;7847;50.930;4.336;2023-04-25T10:12:52;0.30;;;0.30;;
15490;SDS011;7847;50.930;4.336;2023-04-25T10:15:19;0.30;;;0.30;;
15490;SDS011;7847;50.930;4.336;2023-04-25T10:17:45;0.30;;;0.30;;
15490;SDS011;7847;50.930;4.336;2023-04-25T10:20:11;0.30;;;0.30;;
15490;SDS011;7847;50.930;4.336;2023-04-25T10:22:39;0.20;;;0.20;;
15490;SDS011;7847;50.930;4.336;2023-04-25T10:25:07;0.30;;;0.30;;
15490;SDS011;7847;50.930;4.336;2023-04-25T10:27:34;0.30;;;0.30;;
15490;SDS011;7847;50.930;4.336;2023-04-25T10:30:03;0.30;;;0.30;;
15490;SDS011;7847;50.930;4.336;2023-04-25T10:32:30;0.30;;;0.30;;
15490;SDS011;7847;50.930;4.336;2023-04-25T10:34:57;0.30;;;0.30;;
15490;SDS011;7847;50.930;4.336;2023-04-25T10:37:24;0.30;;;0.30;;
15490;SDS011;7847;50.930;4.336;2023-04-25T10:39:50;0.30;;;0.30;;
15490;SDS011;7847;50.930;4.336;2023-04-25T10:42:18;0.30;;;0.30;;
15490;SDS011;7847;50.930;4.336;2023-04-25T10:45:00;0.30;;;0.30;;
15490;SDS011;7847;50.930;4.336;2023-04-25T10:47:35;0.30;;;0.30;;
15490;SDS011;7847;50.930;4.336;2023-04-25T10:50:05;0.30;;;0.30;;
15490;SDS011;7847;50.930;4.336;2023-04-25T10:52:32;0.30;;;0.30;;
15490;SDS011;7847;50.930;4.336;2023-04-25T10:54:58;0.30;;;0.30;;
15490;SDS011;7847;50.930;4.336;2023-04-25T10:57:29;0.30;;;0.30;;
15490;SDS011;7847;50.930;4.336;2023-04-25T11:00:13;0.40;;;0.40;;
15490;SDS011;7847;50.930;4.336;2023-04-25T11:10:12;0.30;;;0.30;;
15490;SDS011;7847;50.930;4.336;2023-04-25T11:12:39;0.30;;;0.30;;
15490;SDS011;7847;50.930;4.336;2023-04-25T11:15:06;0.30;;;0.30;;
15490;SDS011;7847;50.930;4.336;2023-04-25T11:17:32;0.30;;;0.30;;
15490;SDS011;7847;50.930;4.336;2023-04-25T11:19:59;0.30;;;0.30;;
15490;SDS011;7847;50.930;4.336;2023-04-25T11:22:26;0.30;;;0.30;;
15490;SDS011;7847;50.930;4.336;2023-04-25T11:24:52;0.30;;;0.30;;
15490;SDS011;7847;50.930;4.336;2023-04-25T11:27:19;0.30;;;0.30;;
15490;SDS011;7847;50.930;4.336;2023-04-25T11:29:45;0.30;;;0.30;;
15490;SDS011;7847;50.930;4.336;2023-04-25T11:32:13;0.30;;;0.30;;
15490;SDS011;7847;50.930;4.336;2023-04-25T11:34:42;0.30;;;0.30;;
15490;SDS011;7847;50.930;4.336;2023-04-25T11:37:08;0.30;;;0.30;;
15490;SDS011;7847;50.930;4.336;2023-04-25T11:39:36;0.30;;;0.30;;
15490;SDS011;7847;50.930;4.336;2023-04-25T11:42:03;0.30;;;0.30;;
15490;SDS011;7847;50.930;4.336;2023-04-25T11:44:30;0.30;;;0.30;;
15490;SDS011;7847;50.930;4.336;2023-04-25T11:46:56;0.30;;;0.30;;
15490;SDS011;7847;50.930;4.336;2023-04-25T11:49:23;0.30;;;0.30;;
15490;SDS011;7847;50.930;4.336;2023-04-25T11:51:49;0.30;;;0.30;;
15490;SDS011;7847;50.930;4.336;2023-04-25T11:54:16;0.30;;;0.30;;
15490;SDS011;7847;50.930;4.336;2023-04-25T11:56:45;0.20;;;0.20;;
15490;SDS011;7847;50.930;4.336;2023-04-25T11:59:12;0.30;;;0.30;;
15490;SDS011;7847;50.930;4.336;2023-04-25T12:01:39;0.20;;;0.20;;
15490;SDS011;7847;50.930;4.336;2023-04-25T12:04:21;0.30;;;0.30;;
15490;SDS011;7847;50.930;4.336;2023-04-25T12:06:48;0.30;;;0.30;;
15490;SDS011;7847;50.930;4.336;2023-04-25T12:09:19;0.30;;;0.30;;
15490;SDS011;7847;50.930;4.336;2023-04-25T12:11:54;0.30;;;0.30;;
15490;SDS011;7847;50.930;4.336;2023-04-25T12:14:24;0.30;;;0.30;;
15490;SDS011;7847;50.930;4.336;2023-04-25T12:16:51;0.30;;;0.30;;
15490;SDS011;7847;50.930;4.336;2023-04-25T12:19:18;0.30;;;0.30;;
15490;SDS011;7847;50.930;4.336;2023-04-25T12:21:45;0.30;;;0.30;;
15490;SDS011;7847;50.930;4.336;2023-04-25T12:24:12;0.30;;;0.30;;
15490;SDS011;7847;50.930;4.336;2023-04-25T12:29:20;0.30;;;0.30;;
15490;SDS011;7847;50.930;4.336;2023-04-25T12:31:46;0.30;;;0.30;;
15490;SDS011;7847;50.930;4.336;2023-04-25T12:34:13;0.20;;;0.20;;
15490;SDS011;7847;50.930;4.336;2023-04-25T12:36:39;0.30;;;0.30;;
15490;SDS011;7847;50.930;4.336;2023-04-25T12:39:05;0.30;;;0.30;;
15490;SDS011;7847;50.930;4.336;2023-04-25T12:41:32;0.30;;;0.30;;
15490;SDS011;7847;50.930;4.336;2023-04-25T12:43:58;0.30;;;0.30;;
15490;SDS011;7847;50.930;4.336;2023-04-25T12:46:24;0.30;;;0.30;;
15490;SDS011;7847;50.930;4.336;2023-04-25T12:48:50;0.30;;;0.30;;
15490;SDS011;7847;50.930;4.336;2023-04-25T12:51:17;0.30;;;0.30;;
15490;SDS011;7847;50.930;4.336;2023-04-25T12:53:43;0.30;;;0.30;;
15490;SDS011;7847;50.930;4.336;2023-04-25T12:56:09;0.30;;;0.30;;
15490;SDS011;7847;50.930;4.336;2023-04-25T12:58:36;0.30;;;0.30;;
15490;SDS011;7847;50.930;4.336;2023-04-25T13:01:02;0.30;;;0.30;;
15490;SDS011;7847;50.930;4.336;2023-04-25T13:03:28;0.30;;;0.30;;
15490;SDS011;7847;50.930;4.336;2023-04-25T13:05:54;0.30;;;0.30;;
15490;SDS011;7847;50.930;4.336;2023-04-25T13:08:20;0.30;;;0.30;;
15490;SDS011;7847;50.930;4.336;2023-04-25T13:10:50;0.30;;;0.30;;
15490;SDS011;7847;50.930;4.336;2023-04-25T13:13:16;0.30;;;0.30;;
15490;SDS011;7847;50.930;4.336;2023-04-25T13:15:42;0.30;;;0.30;;
15490;SDS011;7847;50.930;4.336;2023-04-25T13:18:08;0.30;;;0.30;;
15490;SDS011;7847;50.930;4.336;2023-04-25T13:20:34;0.30;;;0.30;;
15490;SDS011;7847;50.930;4.336;2023-04-25T13:23:00;0.30;;;0.30;;
15490;SDS011;7847;50.930;4.336;2023-04-25T13:25:26;0.30;;;0.30;;
15490;SDS011;7847;50.930;4.336;2023-04-25T13:27:52;0.23;;;0.23;;
15490;SDS011;7847;50.930;4.336;2023-04-25T13:30:18;0.30;;;0.30;;
15490;SDS011;7847;50.930;4.336;2023-04-25T13:32:44;0.30;;;0.30;;
15490;SDS011;7847;50.930;4.336;2023-04-25T13:35:11;0.23;;;0.23;;
15490;SDS011;7847;50.930;4.336;2023-04-25T13:37:38;0.30;;;0.30;;
15490;SDS011;7847;50.930;4.336;2023-04-25T13:40:06;0.30;;;0.30;;
15490;SDS011;7847;50.930;4.336;2023-04-25T13:42:34;0.30;;;0.30;;
15490;SDS011;7847;50.930;4.336;2023-04-25T13:45:00;0.30;;;0.30;;
15490;SDS011;7847;50.930;4.336;2023-04-25T13:47:26;0.30;;;0.30;;
15490;SDS011;7847;50.930;4.336;2023-04-25T13:49:52;0.30;;;0.30;;
15490;SDS011;7847;50.930;4.336;2023-04-25T13:52:19;0.30;;;0.30;;
15490;SDS011;7847;50.930;4.336;2023-04-25T13:54:45;0.30;;;0.30;;
15490;SDS011;7847;50.930;4.336;2023-04-25T13:57:12;0.30;;;0.30;;
15490;SDS011;7847;50.930;4.336;2023-04-25T13:59:38;0.30;;;0.30;;
15490;SDS011;7847;50.930;4.336;2023-04-25T14:02:06;0.30;;;0.30;;
15490;SDS011;7847;50.930;4.336;2023-04-25T14:04:32;0.30;;;0.30;;
15490;SDS011;7847;50.930;4.336;2023-04-25T14:06:58;0.30;;;0.30;;
15490;SDS011;7847;50.930;4.336;2023-04-25T14:09:24;0.30;;;0.30;;
15490;SDS011;7847;50.930;4.336;2023-04-25T14:11:52;0.30;;;0.30;;
15490;SDS011;7847;50.930;4.336;2023-04-25T14:14:18;0.30;;;0.30;;
15490;SDS011;7847;50.930;4.336;2023-04-25T14:16:45;0.30;;;0.30;;
15490;SDS011;7847;50.930;4.336;2023-04-25T14:19:13;0.30;;;0.30;;
15490;SDS011;7847;50.930;4.336;2023-04-25T14:21:39;0.30;;;0.30;;
15490;SDS011;7847;50.930;4.336;2023-04-25T14:24:05;0.30;;;0.30;;
15490;SDS011;7847;50.930;4.336;2023-04-25T14:26:33;0.30;;;0.30;;
15490;SDS011;7847;50.930;4.336;2023-04-25T14:29:00;0.30;;;0.30;;
15490;SDS011;7847;50.930;4.336;2023-04-25T14:31:26;0.30;;;0.30;;
15490;SDS011;7847;50.930;4.336;2023-04-25T14:33:53;0.30;;;0.30;;
15490;SDS011;7847;50.930;4.336;2023-04-25T14:36:19;0.20;;;0.20;;
15490;SDS011;7847;50.930;4.336;2023-04-25T14:38:45;0.30;;;0.30;;
15490;SDS011;7847;50.930;4.336;2023-04-25T14:41:11;0.30;;;0.30;;
15490;SDS011;7847;50.930;4.336;2023-04-25T14:43:37;0.30;;;0.30;;
15490;SDS011;7847;50.930;4.336;2023-04-25T14:46:05;0.30;;;0.30;;
15490;SDS011;7847;50.930;4.336;2023-04-25T14:48:32;0.30;;;0.30;;
15490;SDS011;7847;50.930;4.336;2023-04-25T14:50:58;0.30;;;0.30;;
15490;SDS011;7847;50.930;4.336;2023-04-25T14:53:25;0.30;;;0.30;;
15490;SDS011;7847;50.930;4.336;2023-04-25T14:55:51;0.30;;;0.30;;
15490;SDS011;7847;50.930;4.336;2023-04-25T14:58:18;0.30;;;0.30;;
15490;SDS011;7847;50.930;4.336;2023-04-25T15:00:45;0.30;;;0.30;;
15490;SDS011;7847;50.930;4.336;2023-04-25T15:03:11;0.30;;;0.30;;
15490;SDS011;7847;50.930;4.336;2023-04-25T15:05:38;0.30;;;0.30;;
15490;SDS011;7847;50.930;4.336;2023-04-25T15:08:05;0.30;;;0.30;;